Time;durP1;ratioP1;P1;durP2;ratioP2;P2;SDS_P1;SDS_P2;PMS_P1;PMS_P2;Temp;Humidity;BMP_temperature;BMP_pressure;BME280_temperature;BME280_humidity;BME280_pressure;Samples;Min_cycle;Max_cycle;Signal;HPM_P1;HPM_P2
2022/08/28 00:01:37;;;;;;;10.52;4.80;;;14.20;99.90;;;;;;5070137;28;20032;-48
2022/08/28 00:04:03;;;;;;;8.98;4.28;;;14.10;99.90;;;;;;5069739;28;20044;-51
2022/08/28 00:06:28;;;;;;;9.32;4.30;;;14.10;99.90;;;;;;5069057;28;20040;-49
2022/08/28 00:08:55;;;;;;;7.70;3.83;;;14.00;99.90;;;;;;5069656;28;20551;-49
2022/08/28 00:11:20;;;;;;;;;;;14.10;99.90;;;;;;5069820;28;20493;-48
2022/08/28 00:13:47;;;;;;;9.43;4.35;;;14.00;99.80;;;;;;5069460;28;19927;-49
2022/08/28 00:16:12;;;;;;;;;;;13.90;99.40;;;;;;5070221;28;20046;-51
2022/08/28 00:18:38;;;;;;;10.23;4.40;;;13.90;99.60;;;;;;5069455;28;19916;-48
2022/08/28 00:21:04;;;;;;;10.52;3.25;;;13.90;99.70;;;;;;5069735;28;20037;-49
2022/08/28 00:23:31;;;;;;;9.45;3.75;;;13.90;99.90;;;;;;5069560;28;20064;-48
2022/08/28 00:25:58;;;;;;;10.35;4.10;;;13.80;99.90;;;;;;5069167;28;20040;-48
2022/08/28 00:28:23;;;;;;;7.18;3.33;;;13.80;99.90;;;;;;5069425;28;20119;-48
2022/08/28 00:30:52;;;;;;;8.95;3.83;;;13.80;99.90;;;;;;5069747;28;20112;-48
2022/08/28 00:33:26;;;;;;;6.30;3.40;;;13.80;99.90;;;;;;5068587;28;20036;-48
2022/08/28 00:35:51;;;;;;;8.00;3.15;;;13.70;99.90;;;;;;5069792;28;20040;-48
2022/08/28 00:38:18;;;;;;;10.05;2.88;;;13.70;99.90;;;;;;5069286;28;20458;-48
2022/08/28 00:40:46;;;;;;;7.57;3.50;;;13.60;99.90;;;;;;5069441;28;20042;-48
2022/08/28 00:43:42;;;;;;;10.05;3.55;;;13.60;99.90;;;;;;5068876;28;20078;-48
2022/08/28 00:46:14;;;;;;;7.75;3.92;;;13.60;99.90;;;;;;5069427;28;20033;-48
2022/08/28 00:48:40;;;;;;;9.13;3.55;;;13.50;99.90;;;;;;5069831;28;20041;-48
2022/08/28 00:53:51;;;;;;;7.75;3.20;;;13.50;99.90;;;;;;5068898;28;20045;-48
2022/08/28 00:56:18;;;;;;;9.13;3.33;;;13.50;99.90;;;;;;5068307;28;20032;-48
2022/08/28 00:58:46;;;;;;;11.63;4.55;;;13.40;99.90;;;;;;5069831;28;20112;-49
2022/08/28 01:01:13;;;;;;;11.93;3.75;;;13.40;99.90;;;;;;5069547;28;20154;-49
2022/08/28 01:03:41;;;;;;;14.27;4.25;;;13.40;99.90;;;;;;5069472;28;20170;-48
2022/08/28 01:06:07;;;;;;;7.53;4.15;;;13.40;99.90;;;;;;5069752;28;20124;-48
2022/08/28 01:08:34;;;;;;;;;;;13.30;99.90;;;;;;5072779;28;20175;-48
2022/08/28 01:11:02;;;;;;;6.38;3.75;;;13.30;99.90;;;;;;5073234;28;19924;-48
2022/08/28 01:13:29;;;;;;;10.07;3.50;;;13.30;99.90;;;;;;5073450;28;20037;-48
2022/08/28 01:15:57;;;;;;;8.45;2.95;;;13.30;99.90;;;;;;5072798;28;20081;-48
2022/08/28 01:18:25;;;;;;;5.97;2.90;;;13.20;99.90;;;;;;5073397;28;20036;-48
2022/08/28 01:21:28;;;;;;;12.02;3.78;;;13.20;99.90;;;;;;5072381;28;20085;-49
2022/08/28 01:23:53;;;;;;;5.82;2.88;;;13.20;99.90;;;;;;5051682;28;20063;-48
2022/08/28 01:26:19;;;;;;;8.50;2.90;;;13.20;99.90;;;;;;5072623;28;20036;-49
2022/08/28 01:28:45;;;;;;;9.98;3.20;;;13.20;99.90;;;;;;5072959;28;20470;-48
2022/08/28 01:31:13;;;;;;;6.50;3.17;;;13.10;99.90;;;;;;5072860;28;20422;-49
2022/08/28 01:33:40;;;;;;;8.13;2.83;;;13.10;99.90;;;;;;5071953;28;20047;-49
2022/08/28 01:36:06;;;;;;;5.47;2.20;;;13.00;99.90;;;;;;5072073;28;20040;-48
2022/08/28 01:38:32;;;;;;;8.77;2.35;;;13.00;99.90;;;;;;5072559;28;20040;-48
2022/08/28 01:40:58;;;;;;;7.40;2.63;;;12.90;99.90;;;;;;5072579;28;20028;-49
2022/08/28 01:43:30;;;;;;;;;;;12.90;99.90;;;;;;5072616;28;20044;-48
2022/08/28 01:46:03;;;;;;;3.88;2.28;;;12.80;99.90;;;;;;5072720;28;19916;-48
2022/08/28 01:48:31;;;;;;;5.78;2.67;;;12.80;99.90;;;;;;5072172;28;20048;-48
2022/08/28 01:50:57;;;;;;;7.18;3.42;;;12.80;99.90;;;;;;5072448;28;20064;-49
2022/08/28 01:53:26;;;;;;;7.68;2.30;;;12.80;99.90;;;;;;5072165;28;20070;-54
2022/08/28 01:55:54;;;;;;;5.00;2.60;;;12.70;99.90;;;;;;5072267;28;20051;-51
2022/08/28 01:58:21;;;;;;;7.50;2.50;;;12.70;99.90;;;;;;5072141;28;20545;-53
2022/08/28 02:00:46;;;;;;;7.43;2.80;;;12.70;99.90;;;;;;5071984;28;20060;-52
2022/08/28 02:03:12;;;;;;;5.45;2.60;;;12.70;99.90;;;;;;5071918;28;20060;-50
2022/08/28 02:05:38;;;;;;;7.00;2.45;;;12.60;99.90;;;;;;5072490;28;20038;-54
2022/08/28 02:08:06;;;;;;;5.47;2.25;;;12.60;99.90;;;;;;5070738;28;20054;-53
2022/08/28 02:10:35;;;;;;;2.92;1.50;;;12.50;99.90;;;;;;5072052;28;20493;-52
2022/08/28 02:13:02;;;;;;;3.95;1.45;;;12.50;99.90;;;;;;5071547;28;20082;-53
2022/08/28 02:15:30;;;;;;;3.63;1.20;;;12.50;99.90;;;;;;5068048;28;20040;-53
2022/08/28 02:17:56;;;;;;;2.47;1.38;;;12.50;99.90;;;;;;5074907;28;20037;-54
2022/08/28 02:20:23;;;;;;;2.57;1.60;;;12.50;99.90;;;;;;5071915;28;20112;-50
2022/08/28 02:22:48;;;;;;;5.13;1.70;;;12.50;99.90;;;;;;5061626;28;20333;-52
2022/08/28 02:25:15;;;;;;;8.73;2.50;;;12.50;99.90;;;;;;5071517;28;20032;-53
2022/08/28 02:27:41;;;;;;;5.45;2.50;;;12.60;99.90;;;;;;5071782;28;20333;-53
2022/08/28 02:30:10;;;;;;;11.60;3.35;;;12.60;99.90;;;;;;5070475;28;20071;-52
2022/08/28 02:32:36;;;;;;;6.88;2.58;;;12.60;99.90;;;;;;5070505;28;20056;-54
2022/08/28 02:35:03;;;;;;;3.65;2.50;;;12.60;99.90;;;;;;5070701;28;20048;-53
2022/08/28 02:37:28;;;;;;;5.90;2.33;;;12.50;99.90;;;;;;5072099;28;20089;-54
2022/08/28 02:39:55;;;;;;;7.83;2.30;;;12.50;99.90;;;;;;5071171;28;20137;-52
2022/08/28 02:42:21;;;;;;;9.45;2.60;;;12.50;99.90;;;;;;5071290;28;20803;-53
2022/08/28 02:44:47;;;;;;;4.57;2.40;;;12.50;99.90;;;;;;5070875;28;20079;-51
2022/08/28 02:47:14;;;;;;;4.53;2.17;;;12.50;99.90;;;;;;5070200;28;20064;-52
2022/08/28 02:49:40;;;;;;;7.00;3.05;;;12.40;99.90;;;;;;5066682;28;20040;-53
2022/08/28 02:52:05;;;;;;;5.35;2.33;;;12.40;99.90;;;;;;5071030;28;20040;-50
2022/08/28 02:54:32;;;;;;;7.03;2.20;;;12.40;99.90;;;;;;5071219;28;20121;-48
2022/08/28 02:56:58;;;;;;;6.63;2.55;;;12.40;99.90;;;;;;5067065;28;20043;-52
2022/08/28 02:59:24;;;;;;;4.30;1.67;;;12.40;99.90;;;;;;5070845;28;20042;-53
2022/08/28 03:01:50;;;;;;;5.65;2.22;;;12.40;99.90;;;;;;5071558;28;20055;-52
2022/08/28 03:04:16;;;;;;;2.38;1.33;;;12.40;99.90;;;;;;5070665;28;20043;-53
2022/08/28 03:06:42;;;;;;;3.00;2.30;;;12.40;99.90;;;;;;5070977;28;20048;-53
2022/08/28 03:09:08;;;;;;;6.28;2.40;;;12.40;99.90;;;;;;5071181;28;20029;-51
2022/08/28 03:11:33;;;;;;;5.95;2.60;;;12.40;99.90;;;;;;5070395;28;20032;-48
2022/08/28 03:14:00;;;;;;;3.95;1.55;;;12.40;99.90;;;;;;5070702;28;20040;-49
2022/08/28 03:16:26;;;;;;;2.83;1.90;;;12.50;99.90;;;;;;5070617;28;20402;-53
2022/08/28 03:18:52;;;;;;;6.20;2.17;;;12.50;99.90;;;;;;5070954;28;20044;-48
2022/08/28 03:21:17;;;;;;;4.78;2.33;;;12.50;99.90;;;;;;5070643;28;20500;-53
2022/08/28 03:23:43;;;;;;;3.28;1.83;;;12.50;99.90;;;;;;5070705;28;20048;-49
2022/08/28 03:26:12;;;;;;;6.03;2.83;;;12.40;99.90;;;;;;5069324;28;20079;-52
2022/08/28 03:28:41;;;;;;;3.08;2.10;;;12.40;99.90;;;;;;5069367;28;20494;-52
2022/08/28 03:31:10;;;;;;;4.72;2.47;;;12.40;99.90;;;;;;5069639;28;20047;-52
2022/08/28 03:33:36;;;;;;;8.02;2.85;;;12.40;99.90;;;;;;5070048;28;20520;-51
2022/08/28 03:36:02;;;;;;;;;;;12.40;99.90;;;;;;5070910;28;20632;-48
2022/08/28 03:38:28;;;;;;;5.93;2.47;;;12.40;99.90;;;;;;5070394;28;19923;-53
2022/08/28 03:40:53;;;;;;;4.97;2.53;;;12.30;99.90;;;;;;5069327;28;20048;-53
2022/08/28 03:43:22;;;;;;;2.45;1.73;;;12.30;99.90;;;;;;5069232;28;20024;-50
2022/08/28 03:45:57;;;;;;;8.88;2.30;;;12.20;99.90;;;;;;5070212;28;20394;-51
2022/08/28 03:48:24;;;;;;;2.83;1.70;;;12.20;99.90;;;;;;5070312;28;20393;-52
2022/08/28 03:50:52;;;;;;;3.95;1.60;;;12.20;99.90;;;;;;5069985;28;20025;-53
2022/08/28 03:53:20;;;;;;;2.88;1.70;;;12.20;99.90;;;;;;5069332;28;20375;-48
2022/08/28 03:55:46;;;;;;;5.07;1.92;;;12.10;99.90;;;;;;5070096;28;20397;-54
2022/08/28 03:58:12;;;;;;;5.07;1.30;;;12.10;99.90;;;;;;5070014;28;20485;-48
2022/08/28 04:00:39;;;;;;;12.93;1.90;;;12.10;99.90;;;;;;5069497;28;20079;-53
2022/08/28 04:03:04;;;;;;;5.57;1.50;;;12.00;99.90;;;;;;5069573;28;20032;-48
2022/08/28 04:05:30;;;;;;;3.35;2.25;;;12.10;99.90;;;;;;5069809;28;20039;-50
2022/08/28 04:07:56;;;;;;;5.53;2.35;;;12.10;99.90;;;;;;5069510;28;20575;-54
2022/08/28 04:10:21;;;;;;;5.47;2.73;;;12.10;99.90;;;;;;5069790;28;20033;-48
2022/08/28 04:12:47;;;;;;;5.35;2.30;;;12.10;99.90;;;;;;5069820;28;20036;-51
2022/08/28 04:15:13;;;;;;;7.00;2.63;;;12.00;99.90;;;;;;5069903;28;20051;-48
2022/08/28 04:17:40;;;;;;;8.57;2.25;;;12.00;99.90;;;;;;5069793;28;20571;-52
2022/08/28 04:20:07;;;;;;;6.22;3.15;;;12.00;99.90;;;;;;5070155;28;20068;-53
2022/08/28 04:22:33;;;;;;;8.48;3.33;;;12.00;99.90;;;;;;5069700;28;20048;-52
2022/08/28 04:24:59;;;;;;;9.52;3.25;;;11.90;99.90;;;;;;5069307;28;20543;-52
2022/08/28 04:27:25;;;;;;;8.70;2.35;;;11.90;99.90;;;;;;5069308;28;20044;-51
2022/08/28 04:29:50;;;;;;;6.03;3.35;;;11.90;99.90;;;;;;5069711;28;20055;-48
2022/08/28 04:32:16;;;;;;;12.77;3.25;;;11.90;99.90;;;;;;5068825;28;20034;-48
2022/08/28 04:34:41;;;;;;;8.33;2.60;;;12.00;99.90;;;;;;5069680;28;20463;-49
2022/08/28 04:37:07;;;;;;;3.87;2.00;;;12.00;99.90;;;;;;5069277;28;20287;-53
2022/08/28 04:39:33;;;;;;;5.63;2.63;;;12.00;99.90;;;;;;5070074;28;20043;-49
2022/08/28 04:41:58;;;;;;;7.28;2.63;;;12.00;99.90;;;;;;5069429;28;20037;-50
2022/08/28 04:44:24;;;;;;;6.75;2.67;;;12.00;99.90;;;;;;5070211;28;20047;-52
2022/08/28 04:46:50;;;;;;;4.90;3.08;;;12.00;99.90;;;;;;5069229;28;20094;-52
2022/08/28 04:49:16;;;;;;;5.45;2.92;;;12.00;99.90;;;;;;5069460;28;20028;-49
2022/08/28 04:51:42;;;;;;;6.03;3.58;;;12.00;99.90;;;;;;5068752;28;20079;-48
2022/08/28 04:54:09;;;;;;;5.07;2.88;;;12.10;99.90;;;;;;5069683;28;20128;-53
2022/08/28 04:56:35;;;;;;;6.97;3.67;;;12.10;99.90;;;;;;5069052;28;20075;-48
2022/08/28 04:59:02;;;;;;;5.70;3.28;;;12.10;99.90;;;;;;5069166;28;20078;-49
2022/08/28 05:01:27;;;;;;;6.35;3.35;;;12.10;99.90;;;;;;5068903;28;20075;-48
2022/08/28 05:03:56;;;;;;;8.02;3.88;;;12.10;99.90;;;;;;5068552;28;20068;-51
2022/08/28 05:06:25;;;;;;;6.70;3.30;;;12.10;99.90;;;;;;5068602;28;20068;-48
2022/08/28 05:08:51;;;;;;;5.78;3.22;;;12.10;99.90;;;;;;5066145;28;20037;-49
2022/08/28 05:11:20;;;;;;;5.55;3.40;;;12.20;99.90;;;;;;5069241;28;20487;-51
2022/08/28 05:13:47;;;;;;;8.10;2.70;;;12.20;99.90;;;;;;5069218;28;20068;-49
2022/08/28 05:16:13;;;;;;;6.50;3.33;;;12.20;99.90;;;;;;5068960;28;20029;-53
2022/08/28 05:18:38;;;;;;;;;;;12.20;99.90;;;;;;5069029;28;20086;-48
2022/08/28 05:21:11;;;;;;;8.00;2.92;;;12.20;99.90;;;;;;5068883;28;19924;-48
2022/08/28 05:23:36;;;;;;;7.47;2.88;;;12.30;99.90;;;;;;5069108;28;20037;-50
2022/08/28 05:26:02;;;;;;;9.02;5.22;;;12.30;99.90;;;;;;5064586;28;20062;-49
2022/08/28 05:28:28;;;;;;;5.63;2.78;;;12.40;99.90;;;;;;5068435;28;20041;-49
2022/08/28 05:30:53;;;;;;;6.70;3.30;;;12.40;99.90;;;;;;5068197;28;20032;-49
2022/08/28 05:33:19;;;;;;;8.00;3.85;;;12.40;99.90;;;;;;5067197;28;20406;-50
2022/08/28 05:35:45;;;;;;;7.75;4.30;;;12.50;99.90;;;;;;5068741;28;20068;-50
2022/08/28 05:38:12;;;;;;;9.32;4.13;;;12.50;99.90;;;;;;5069614;28;20044;-48
2022/08/28 05:40:47;;;;;;;8.77;3.50;;;12.50;99.90;;;;;;5068076;28;20397;-53
2022/08/28 05:43:15;;;;;;;7.57;4.05;;;12.50;99.90;;;;;;5066951;28;20043;-49
2022/08/28 05:45:41;;;;;;;8.00;3.55;;;12.60;99.90;;;;;;5069015;28;20409;-53
2022/08/28 05:48:07;;;;;;;7.50;2.83;;;12.70;99.90;;;;;;5068145;28;20032;-49
2022/08/28 05:50:32;;;;;;;7.15;3.70;;;12.80;99.90;;;;;;5064522;28;20036;-49
2022/08/28 05:52:58;;;;;;;6.35;2.95;;;12.90;99.90;;;;;;5068823;28;20036;-50
2022/08/28 05:55:24;;;;;;;7.32;3.13;;;12.90;99.90;;;;;;5072400;28;20040;-52
2022/08/28 05:57:50;;;;;;;12.18;3.83;;;13.00;99.90;;;;;;5071876;28;20425;-50
2022/08/28 06:00:17;;;;;;;12.32;4.15;;;13.10;99.90;;;;;;5072129;28;20064;-48
2022/08/28 06:02:43;;;;;;;7.13;3.22;;;13.10;99.90;;;;;;5072606;28;20051;-50
2022/08/28 06:05:09;;;;;;;6.40;3.35;;;13.20;99.90;;;;;;5072410;28;20036;-51
2022/08/28 06:07:35;;;;;;;8.00;2.90;;;13.30;99.90;;;;;;5072293;28;20098;-48
2022/08/28 06:10:00;;;;;;;11.57;3.17;;;13.40;99.90;;;;;;5072468;28;20453;-48
2022/08/28 06:12:26;;;;;;;7.60;3.47;;;13.60;99.90;;;;;;5072079;28;20086;-51
2022/08/28 06:14:52;;;;;;;9.67;3.67;;;13.70;99.90;;;;;;5071579;28;20079;-48
2022/08/28 06:17:17;;;;;;;11.25;3.13;;;13.80;99.90;;;;;;5072058;28;20877;-48
2022/08/28 06:19:43;;;;;;;9.88;2.60;;;13.90;99.90;;;;;;5072570;28;20033;-49
2022/08/28 06:22:11;;;;;;;7.95;3.63;;;14.00;99.90;;;;;;5071936;28;20106;-49
2022/08/28 06:24:37;;;;;;;6.82;3.60;;;14.00;99.90;;;;;;5071399;28;20103;-47
2022/08/28 06:27:03;;;;;;;6.18;2.53;;;14.10;99.90;;;;;;5071880;28;20528;-47
2022/08/28 06:29:29;;;;;;;7.15;2.25;;;14.30;99.90;;;;;;5070788;28;20047;-50
2022/08/28 06:31:57;;;;;;;4.97;2.55;;;14.40;99.90;;;;;;5071526;28;20040;-48
2022/08/28 06:34:24;;;;;;;7.15;2.53;;;14.50;99.90;;;;;;5071429;28;20701;-50
2022/08/28 06:36:49;;;;;;;10.85;2.25;;;14.60;99.90;;;;;;5072122;28;20425;-48
2022/08/28 06:39:15;;;;;;;11.65;2.67;;;14.70;99.90;;;;;;5071617;28;20119;-50
2022/08/28 06:41:42;;;;;;;9.68;2.75;;;14.90;99.90;;;;;;5071930;28;20078;-49
2022/08/28 06:44:12;;;;;;;5.88;2.20;;;15.00;99.90;;;;;;5070827;28;20747;-49
2022/08/28 06:46:40;;;;;;;4.65;2.05;;;15.10;99.90;;;;;;5072005;28;20502;-48
2022/08/28 06:49:07;;;;;;;10.00;2.42;;;15.20;99.90;;;;;;5071963;28;20053;-49
2022/08/28 06:51:34;;;;;;;12.70;2.42;;;15.40;99.90;;;;;;5072030;28;20036;-48
2022/08/28 06:54:00;;;;;;;6.05;1.63;;;15.50;99.90;;;;;;5070758;28;20036;-48
2022/08/28 06:56:26;;;;;;;13.00;2.45;;;15.60;99.90;;;;;;5071175;28;20109;-50
2022/08/28 06:58:54;;;;;;;4.97;1.27;;;15.80;99.90;;;;;;5071141;28;20041;-50
2022/08/28 07:01:30;;;;;;;7.80;2.00;;;15.90;99.90;;;;;;5065569;28;20037;-49
2022/08/28 07:04:02;;;;;;;6.47;1.38;;;16.00;99.90;;;;;;5071342;28;20075;-48
2022/08/28 07:06:32;;;;;;;12.20;1.50;;;16.10;99.90;;;;;;5065828;28;20040;-48
2022/08/28 07:08:58;;;;;;;6.93;1.60;;;16.30;99.90;;;;;;5071592;28;20032;-48
2022/08/28 07:11:27;;;;;;;5.72;0.77;;;16.30;99.90;;;;;;5070840;28;20036;-48
2022/08/28 07:13:54;;;;;;;5.97;1.45;;;16.50;99.90;;;;;;5070604;28;20520;-48
2022/08/28 07:16:23;;;;;;;9.50;1.50;;;16.60;99.90;;;;;;5071216;28;20029;-48
2022/08/28 07:18:49;;;;;;;7.65;1.25;;;16.80;99.90;;;;;;5070717;28;20032;-49
2022/08/28 07:21:15;;;;;;;6.70;1.10;;;16.90;99.90;;;;;;5070535;28;20082;-48
2022/08/28 07:23:42;;;;;;;13.88;1.27;;;17.00;99.90;;;;;;5070189;28;20521;-48
2022/08/28 07:26:15;;;;;;;8.10;1.58;;;17.10;99.90;;;;;;5067866;28;20052;-49
2022/08/28 07:28:41;;;;;;;4.95;0.77;;;17.30;99.90;;;;;;5071117;28;20040;-47
2022/08/28 07:31:10;;;;;;;7.93;1.00;;;17.40;99.90;;;;;;5070282;28;20067;-48
2022/08/28 07:33:37;;;;;;;4.32;0.77;;;17.50;99.90;;;;;;5070515;28;20037;-50
2022/08/28 07:36:06;;;;;;;5.50;0.70;;;17.60;99.90;;;;;;5068476;28;20084;-50
2022/08/28 07:38:32;;;;;;;5.57;0.98;;;17.70;99.90;;;;;;5070733;28;20079;-48
2022/08/28 07:40:57;;;;;;;9.95;1.42;;;17.90;99.90;;;;;;5070023;28;20068;-48
2022/08/28 07:46:10;;;;;;;7.05;1.00;;;18.10;99.90;;;;;;5069753;28;20033;-48
2022/08/28 07:48:37;;;;;;;5.32;1.02;;;18.20;99.40;;;;;;5058680;28;20048;-48
2022/08/28 07:51:04;;;;;;;5.60;0.98;;;18.30;99.50;;;;;;5068740;28;20063;-48
2022/08/28 07:53:30;;;;;;;8.35;1.55;;;18.40;99.20;;;;;;5070154;28;20028;-48
2022/08/28 07:55:55;;;;;;;4.95;0.80;;;18.50;99.20;;;;;;5069925;28;20482;-49
2022/08/28 07:58:24;;;;;;;14.45;0.85;;;18.60;98.80;;;;;;5069309;28;20123;-47
2022/08/28 08:00:50;;;;;;;7.70;0.65;;;18.80;98.10;;;;;;5070389;28;20028;-47
2022/08/28 08:03:16;;;;;;;8.20;0.88;;;18.80;97.70;;;;;;5069224;28;20535;-47
2022/08/28 08:06:01;;;;;;;5.65;1.17;;;18.90;97.60;;;;;;5070497;28;20056;-48
2022/08/28 08:08:28;;;;;;;6.20;0.90;;;18.90;97.50;;;;;;5070246;28;20101;-47
2022/08/28 08:10:59;;;;;;;6.32;1.05;;;19.00;97.40;;;;;;5069749;28;20070;-48
2022/08/28 08:13:25;;;;;;;4.35;0.52;;;19.10;97.40;;;;;;5069944;28;20076;-48
2022/08/28 08:15:51;;;;;;;12.43;0.93;;;19.10;96.70;;;;;;5068973;28;20552;-49
2022/08/28 08:18:17;;;;;;;7.97;0.98;;;19.20;96.80;;;;;;5069776;28;20059;-47
2022/08/28 08:20:48;;;;;;;6.32;0.98;;;19.30;96.90;;;;;;5069992;28;20486;-51
2022/08/28 08:23:14;;;;;;;7.35;0.98;;;19.30;96.80;;;;;;5066195;28;20062;-47
2022/08/28 08:25:39;;;;;;;10.73;1.10;;;19.30;96.30;;;;;;5069544;28;20112;-48
2022/08/28 08:28:06;;;;;;;6.63;0.50;;;19.40;96.20;;;;;;5069434;28;20036;-47
2022/08/28 08:30:31;;;;;;;3.85;0.60;;;19.50;96.20;;;;;;5069564;28;20045;-48
2022/08/28 08:32:57;;;;;;;7.38;0.73;;;19.60;96.10;;;;;;5069999;28;20033;-48
2022/08/28 08:35:22;;;;;;;10.55;1.20;;;19.70;95.80;;;;;;5069990;28;20041;-48
2022/08/28 08:37:48;;;;;;;;;;;19.80;95.20;;;;;;5065025;28;20505;-48
2022/08/28 08:40:17;;;;;;;5.82;0.80;;;19.90;94.70;;;;;;5069440;28;19999;-48
2022/08/28 08:42:47;;;;;;;8.60;1.23;;;19.90;94.70;;;;;;5067703;28;20508;-49
2022/08/28 08:45:16;;;;;;;7.28;0.82;;;19.80;94.80;;;;;;5069488;28;20051;-47
2022/08/28 08:47:50;;;;;;;3.85;0.95;;;19.70;94.90;;;;;;5069450;28;20040;-49
2022/08/28 08:50:19;;;;;;;8.98;0.90;;;19.60;94.70;;;;;;5060729;28;20036;-49
2022/08/28 08:52:45;;;;;;;4.85;1.45;;;19.50;94.80;;;;;;5069001;28;20103;-52
2022/08/28 08:55:27;;;;;;;8.13;1.35;;;19.50;94.70;;;;;;5069136;28;20131;-49
2022/08/28 08:58:06;;;;;;;5.25;0.57;;;19.40;94.60;;;;;;5066660;28;20122;-48
2022/08/28 09:00:56;;;;;;;3.00;1.05;;;19.50;94.50;;;;;;5069263;28;20445;-48
2022/08/28 09:03:42;;;;;;;10.35;0.95;;;19.60;95.20;;;;;;5064330;28;20036;-48
2022/08/28 09:06:39;;;;;;;7.70;0.90;;;19.80;94.60;;;;;;5069184;28;20097;-48
2022/08/28 09:09:17;;;;;;;5.93;0.90;;;20.00;94.50;;;;;;5029659;28;20426;-48
2022/08/28 09:11:53;;;;;;;7.45;0.57;;;20.30;94.60;;;;;;5067987;28;20040;-50
2022/08/28 09:14:53;;;;;;;13.52;0.98;;;20.40;93.50;;;;;;5069162;28;20131;-47
2022/08/28 09:17:23;;;;;;;5.10;0.95;;;20.60;93.10;;;;;;5069769;28;20048;-48
2022/08/28 09:19:48;;;;;;;11.75;0.90;;;20.70;92.80;;;;;;5069818;28;20040;-48
2022/08/28 09:22:14;;;;;;;5.75;0.60;;;20.80;92.30;;;;;;5069306;28;20502;-48
2022/08/28 09:24:41;;;;;;;7.50;0.77;;;21.00;91.60;;;;;;5068593;28;20055;-46
2022/08/28 09:27:19;;;;;;;3.70;1.00;;;21.10;91.40;;;;;;5069419;28;20094;-48
2022/08/28 09:29:58;;;;;;;3.40;0.60;;;21.20;90.80;;;;;;5072145;28;20410;-48
2022/08/28 09:32:28;;;;;;;4.63;0.50;;;21.30;90.30;;;;;;5072531;28;20052;-49
2022/08/28 09:35:11;;;;;;;10.40;0.60;;;21.50;90.20;;;;;;5072464;28;20489;-48
2022/08/28 09:37:38;;;;;;;5.50;0.70;;;21.60;88.90;;;;;;5073114;28;20032;-47
2022/08/28 09:40:19;;;;;;;3.33;0.47;;;21.70;89.20;;;;;;5072969;28;20241;-48
2022/08/28 09:45:59;;;;;;;6.00;0.70;;;21.50;87.50;;;;;;5073199;28;20052;-48
2022/08/28 09:48:30;;;;;;;3.67;0.40;;;21.20;87.20;;;;;;5066334;28;20048;-49
2022/08/28 09:50:57;;;;;;;4.47;0.60;;;21.10;88.00;;;;;;5071531;28;20032;-48
2022/08/28 09:53:24;;;;;;;5.22;0.70;;;21.20;87.80;;;;;;5072345;28;20055;-48
2022/08/28 09:55:58;;;;;;;3.90;0.50;;;21.30;87.40;;;;;;5071997;28;20043;-48
2022/08/28 09:58:36;;;;;;;2.78;0.47;;;21.40;86.90;;;;;;5072592;28;20040;-48
2022/08/28 10:01:07;;;;;;;5.10;0.50;;;21.60;86.20;;;;;;5072811;28;20046;-48
2022/08/28 10:03:42;;;;;;;2.83;0.60;;;21.60;85.80;;;;;;5072192;28;20504;-47
2022/08/28 10:06:17;;;;;;;11.50;0.60;;;21.70;85.80;;;;;;5072387;28;20043;-47
2022/08/28 10:08:53;;;;;;;5.47;0.50;;;21.80;85.80;;;;;;5072849;28;20033;-48
2022/08/28 10:11:45;;;;;;;5.57;0.40;;;22.00;85.20;;;;;;5072355;28;20517;-48
2022/08/28 10:14:13;;;;;;;3.70;0.70;;;22.10;83.90;;;;;;5052901;28;20082;-48
2022/08/28 10:16:51;;;;;;;12.32;0.75;;;22.20;84.90;;;;;;5072049;28;20041;-47
2022/08/28 10:19:39;;;;;;;3.53;0.55;;;22.40;83.80;;;;;;5072459;28;20047;-48
2022/08/28 10:22:42;;;;;;;6.45;0.93;;;22.50;84.50;;;;;;5052448;28;20409;-47
2022/08/28 10:25:31;;;;;;;4.30;0.65;;;22.50;82.80;;;;;;5065316;28;20418;-47
2022/08/28 10:28:18;;;;;;;5.25;0.60;;;22.40;81.00;;;;;;5072439;28;20045;-48
2022/08/28 10:31:07;;;;;;;6.68;0.50;;;22.20;79.60;;;;;;5072208;28;20044;-49
2022/08/28 10:34:01;;;;;;;4.97;0.82;;;22.00;79.80;;;;;;5071340;28;20063;-48
2022/08/28 10:36:32;;;;;;;1.75;0.40;;;21.80;80.20;;;;;;5072363;28;20115;-47
2022/08/28 10:39:31;;;;;;;2.90;0.70;;;21.80;81.40;;;;;;5071833;28;20033;-48
2022/08/28 10:41:59;;;;;;;2.38;0.73;;;21.90;80.40;;;;;;5071753;28;20052;-47
2022/08/28 10:44:53;;;;;;;4.70;0.50;;;22.10;80.70;;;;;;5071530;28;20040;-50
2022/08/28 10:47:21;;;;;;;2.83;0.60;;;22.20;80.80;;;;;;5071888;28;20654;-49
2022/08/28 10:49:50;;;;;;;3.28;0.60;;;22.40;81.40;;;;;;5071662;28;20078;-48
2022/08/28 10:52:24;;;;;;;4.70;0.75;;;22.60;81.10;;;;;;5071685;28;20557;-48
2022/08/28 10:55:33;;;;;;;4.25;0.70;;;22.80;80.30;;;;;;5071613;28;20048;-53
2022/08/28 10:58:10;;;;;;;6.22;0.70;;;22.70;79.50;;;;;;4970540;28;20081;-53
2022/08/28 11:00:38;;;;;;;2.10;0.50;;;22.50;77.80;;;;;;4960684;28;20043;-53
2022/08/28 11:03:10;;;;;;;2.75;0.40;;;22.30;77.80;;;;;;4970048;28;20054;-50
2022/08/28 11:05:46;;;;;;;3.75;0.88;;;22.10;76.90;;;;;;4969211;28;20377;-51
2022/08/28 11:08:20;;;;;;;;;;;22.00;77.80;;;;;;4970550;28;20038;-50
2022/08/28 11:10:53;;;;;;;2.47;0.63;;;21.90;78.60;;;;;;4969829;28;19933;-49
2022/08/28 11:13:36;;;;;;;3.00;0.65;;;22.00;79.50;;;;;;4969085;28;20057;-50
2022/08/28 11:16:27;;;;;;;2.83;0.82;;;22.20;78.00;;;;;;4969794;28;20058;-49
2022/08/28 11:19:20;;;;;;;4.45;1.00;;;22.40;78.50;;;;;;4969738;28;20571;-50
2022/08/28 11:21:54;;;;;;;3.22;0.60;;;22.50;76.90;;;;;;4969827;28;20105;-51
2022/08/28 11:24:41;;;;;;;5.68;0.57;;;22.40;76.90;;;;;;4969690;28;20066;-51
2022/08/28 11:27:22;;;;;;;;;;;22.40;77.90;;;;;;4953945;28;20074;-50
2022/08/28 11:30:06;;;;;;;2.95;0.47;;;22.40;74.20;;;;;;5064154;28;19936;-52
2022/08/28 11:32:38;;;;;;;2.97;0.70;;;22.40;74.10;;;;;;5071027;28;20032;-52
2022/08/28 11:35:19;;;;;;;6.00;0.88;;;22.40;74.60;;;;;;5070579;28;20094;-53
2022/08/28 11:37:47;;;;;;;3.83;0.45;;;22.40;74.80;;;;;;5070686;28;20478;-47
2022/08/28 11:40:53;;;;;;;4.45;1.13;;;22.60;75.50;;;;;;5070395;28;20075;-50
2022/08/28 11:43:19;;;;;;;2.35;0.45;;;22.80;73.90;;;;;;5058241;28;20514;-49
2022/08/28 11:45:45;;;;;;;3.65;0.52;;;22.90;75.00;;;;;;5070456;28;20514;-49
2022/08/28 11:48:29;;;;;;;;;;;23.10;75.00;;;;;;5070875;28;20121;-52
2022/08/28 11:51:01;;;;;;;2.85;0.68;;;23.00;73.70;;;;;;5069857;28;19924;-50
2022/08/28 11:54:02;;;;;;;3.00;1.08;;;22.90;72.60;;;;;;5070554;28;20064;-47
2022/08/28 11:56:46;;;;;;;4.78;0.68;;;22.80;72.90;;;;;;5070365;28;20044;-50
2022/08/28 11:59:36;;;;;;;2.20;0.82;;;22.90;73.90;;;;;;5070395;28;20436;-48
2022/08/28 12:02:42;;;;;;;7.65;1.00;;;23.00;74.80;;;;;;5068361;28;20044;-49
2022/08/28 12:05:30;;;;;;;5.40;0.52;;;23.00;73.60;;;;;;5025306;28;20059;-49
2022/08/28 12:08:01;;;;;;;6.20;0.82;;;22.90;73.10;;;;;;5027454;28;20048;-49
2022/08/28 12:10:26;;;;;;;4.97;0.68;;;22.70;73.70;;;;;;5026308;28;20033;-52
2022/08/28 12:12:53;;;;;;;;;;;22.60;73.40;;;;;;5028278;28;20041;-52
2022/08/28 12:15:39;;;;;;;6.90;0.50;;;22.40;73.80;;;;;;5027191;28;19928;-48
2022/08/28 12:18:35;;;;;;;4.80;0.70;;;22.30;73.90;;;;;;5027478;28;20426;-52
2022/08/28 12:21:11;;;;;;;8.77;1.25;;;22.20;74.70;;;;;;5009574;28;20518;-49
2022/08/28 12:23:56;;;;;;;9.10;0.82;;;22.30;74.60;;;;;;5021720;28;20033;-49
2022/08/28 12:26:28;;;;;;;3.83;0.50;;;22.50;73.80;;;;;;5002826;28;20446;-49
2022/08/28 12:29:04;;;;;;;5.07;0.80;;;22.70;73.10;;;;;;5007526;28;20041;-49
2022/08/28 12:32:13;;;;;;;2.03;0.68;;;22.90;73.40;;;;;;5009272;28;20065;-52
2022/08/28 12:34:44;;;;;;;4.15;0.60;;;23.00;72.70;;;;;;5006758;28;20057;-50
2022/08/28 12:37:38;;;;;;;5.22;0.60;;;23.00;72.40;;;;;;5007750;28;20044;-50
2022/08/28 12:40:20;;;;;;;3.50;0.68;;;22.90;71.80;;;;;;5017019;28;20068;-48
2022/08/28 12:42:50;;;;;;;3.25;0.63;;;22.80;72.40;;;;;;5069593;28;20040;-52
2022/08/28 12:45:21;;;;;;;4.32;0.68;;;22.70;73.30;;;;;;5069273;28;20033;-49
2022/08/28 12:47:50;;;;;;;3.15;0.70;;;22.60;73.20;;;;;;5069346;28;20044;-48
2022/08/28 12:50:31;;;;;;;9.88;1.15;;;22.50;73.80;;;;;;5069632;28;20406;-49
2022/08/28 12:53:10;;;;;;;6.78;1.25;;;22.70;73.50;;;;;;5068703;28;20032;-49
2022/08/28 12:55:37;;;;;;;8.88;0.70;;;22.80;72.80;;;;;;5069099;28;20043;-50
2022/08/28 12:58:03;;;;;;;6.18;0.73;;;22.90;72.60;;;;;;5069561;28;20619;-51
2022/08/28 13:00:33;;;;;;;;;;;23.10;72.70;;;;;;5069887;28;20085;-51
2022/08/28 13:03:00;;;;;;;3.22;0.75;;;23.30;71.00;;;;;;5071199;28;20330;-48
2022/08/28 13:05:44;;;;;;;3.65;0.95;;;23.40;71.30;;;;;;5073543;28;20550;-52
2022/08/28 13:08:28;;;;;;;3.92;0.70;;;23.50;71.00;;;;;;5073897;28;20043;-48
2022/08/28 13:10:55;;;;;;;4.43;0.77;;;23.50;70.90;;;;;;5073446;28;20047;-50
2022/08/28 13:13:28;;;;;;;5.38;0.77;;;23.40;69.90;;;;;;5073115;28;20527;-49
2022/08/28 13:16:00;;;;;;;4.65;0.90;;;23.20;68.90;;;;;;5068464;28;20047;-51